Time,TemperatureF,DewpointF,PressureIn,WindDirection,WindDirectionDegrees,WindSpeedMPH,WindSpeedGustMPH,Humidity,HourlyPrecipIn,Conditions,Clouds,dailyrainin,SoftwareType,DateUTC
2013-01-24 00:00:00,9.1,-12.0,29.84,WSW,254,0.0,0.0,36,0.00,,,0.00,WXlink_for_OpenVMS,2013-01-24 05:00:00,
2013-01-24 00:05:00,9.1,-12.0,29.84,WSW,254,0.0,0.0,36,0.00,,,0.00,WXlink_for_OpenVMS,2013-01-24 05:05:00,
2013-01-24 00:10:00,9.1,-12.0,29.84,WSW,254,0.0,0.0,36,0.00,,,0.00,WXlink_for_OpenVMS,2013-01-24 05:10:00,
2013-01-24 00:15:00,9.1,-12.0,29.84,WSW,254,2.2,2.7,36,0.00,,,0.00,WXlink_for_OpenVMS,2013-01-24 05:15:00,
2013-01-24 00:20:00,9.1,-12.0,29.84,WSW,254,0.0,0.0,36,0.00,,,0.00,WXlink_for_OpenVMS,2013-01-24 05:20:00,
2013-01-24 00:25:00,9.0,-13.0,29.84,WSW,254,0.0,0.0,36,0.00,,,0.00,WXlink_for_OpenVMS,2013-01-24 05:25:00,
2013-01-24 00:30:00,9.0,-13.0,29.84,WSW,254,0.0,0.0,36,0.00,,,0.00,WXlink_for_OpenVMS,2013-01-24 05:30:00,
2013-01-24 00:35:00,9.0,-13.0,29.84,WSW,254,0.0,0.0,36,0.00,,,0.00,WXlink_for_OpenVMS,2013-01-24 05:35:00,
2013-01-24 00:40:00,9.0,-13.0,29.84,WSW,254,0.0,0.0,36,0.00,,,0.00,WXlink_for_OpenVMS,2013-01-24 05:40:00,
2013-01-24 00:45:00,8.8,-13.0,29.84,WSW,254,0.0,0.0,36,0.00,,,0.00,WXlink_for_OpenVMS,2013-01-24 05:45:00,
2013-01-24 00:50:00,8.8,-13.0,29.84,WSW,244,0.0,0.0,36,0.00,,,0.00,WXlink_for_OpenVMS,2013-01-24 05:50:00,
2013-01-24 00:55:00,8.8,-13.0,29.84,WSW,244,0.0,0.0,36,0.00,,,0.00,WXlink_for_OpenVMS,2013-01-24 05:55:00,
2013-01-24 01:01:00,8.8,-13.0,29.84,WSW,244,0.0,0.0,36,0.00,,,0.00,WXlink_for_OpenVMS,2013-01-24 06:01:00,
2013-01-24 01:10:00,8.4,-13.0,29.84,WSW,256,3.1,3.1,36,0.00,,,0.00,WXlink_for_OpenVMS,2013-01-24 06:10:00,
2013-01-24 01:15:00,8.4,-13.0,29.84,WSW,256,2.2,2.7,36,0.00,,,0.00,WXlink_for_OpenVMS,2013-01-24 06:15:00,
2013-01-24 01:20:00,8.2,-13.0,29.84,WSW,250,2.2,3.1,36,0.00,,,0.00,WXlink_for_OpenVMS,2013-01-24 06:20:00,
2013-01-24 01:25:00,8.2,-13.0,29.84,WSW,250,2.7,2.7,36,0.00,,,0.00,WXlink_for_OpenVMS,2013-01-24 06:25:00,
2013-01-24 01:31:00,8.2,-13.0,29.84,WSW,250,2.2,3.1,36,0.00,,,0.00,WXlink_for_OpenVMS,2013-01-24 06:31:00,
2013-01-24 01:40:00,8.2,-13.0,29.84,WSW,254,0.0,0.0,36,0.00,,,0.00,WXlink_for_OpenVMS,2013-01-24 06:40:00,
2013-01-24 01:45:00,8.2,-13.0,29.84,West,261,2.2,0.0,36,0.00,,,0.00,WXlink_for_OpenVMS,2013-01-24 06:45:00,
2013-01-24 01:50:00,8.2,-13.0,29.84,West,261,0.0,0.0,36,0.00,,,0.00,WXlink_for_OpenVMS,2013-01-24 06:50:00,
2013-01-24 01:55:00,8.1,-13.0,29.84,WSW,250,2.2,2.7,36,0.00,,,0.00,WXlink_for_OpenVMS,2013-01-24 06:55:00,
2013-01-24 02:00:00,7.9,-14.0,29.84,WSW,250,2.2,2.7,36,0.00,,,0.00,WXlink_for_OpenVMS,2013-01-24 07:00:00,
2013-01-24 02:05:00,7.9,-14.0,29.84,WSW,250,2.2,2.7,36,0.00,,,0.00,WXlink_for_OpenVMS,2013-01-24 07:05:00,
2013-01-24 02:10:00,7.7,-14.0,29.84,WNW,292,0.0,0.0,36,0.00,,,0.00,WXlink_for_OpenVMS,2013-01-24 07:10:00,
2013-01-24 02:15:00,7.7,-14.0,29.84,WSW,256,0.0,0.0,36,0.00,,,0.00,WXlink_for_OpenVMS,2013-01-24 07:15:00,
2013-01-24 02:20:00,7.7,-14.0,29.84,WSW,255,0.0,0.0,36,0.00,,,0.00,WXlink_for_OpenVMS,2013-01-24 07:20:00,
2013-01-24 02:25:00,7.7,-14.0,29.84,WNW,297,0.0,0.0,36,0.00,,,0.00,WXlink_for_OpenVMS,2013-01-24 07:25:00,
2013-01-24 02:30:00,7.7,-14.0,29.84,NW,305,0.0,0.0,36,0.00,,,0.00,WXlink_for_OpenVMS,2013-01-24 07:30:00,
2013-01-24 02:36:00,7.5,-14.0,29.84,NW,305,0.0,0.0,36,0.00,,,0.00,WXlink_for_OpenVMS,2013-01-24 07:36:00,
2013-01-24 02:45:00,7.3,-14.0,29.84,West,260,0.0,0.0,36,0.00,,,0.00,WXlink_for_OpenVMS,2013-01-24 07:45:00,
2013-01-24 02:50:00,7.5,-14.0,29.84,West,259,0.0,0.0,36,0.00,,,0.00,WXlink_for_OpenVMS,2013-01-24 07:50:00,
2013-01-24 02:55:00,7.3,-14.0,29.84,WSW,256,0.0,0.0,36,0.00,,,0.00,WXlink_for_OpenVMS,2013-01-24 07:55:00,
2013-01-24 03:00:00,7.2,-14.0,29.84,WSW,256,0.0,0.0,36,0.00,,,0.00,WXlink_for_OpenVMS,2013-01-24 08:00:00,
2013-01-24 03:06:00,7.3,-14.0,29.84,WSW,256,0.0,0.0,36,0.00,,,0.00,WXlink_for_OpenVMS,2013-01-24 08:06:00,
2013-01-24 03:15:00,7.2,-14.0,29.84,WSW,257,0.0,0.0,36,0.00,,,0.00,WXlink_for_OpenVMS,2013-01-24 08:15:00,
2013-01-24 03:20:00,7.2,-14.0,29.84,WSW,251,0.0,0.0,36,0.00,,,0.00,WXlink_for_OpenVMS,2013-01-24 08:20:00,
2013-01-24 03:25:00,7.2,-14.0,29.84,WSW,256,0.0,0.0,36,0.00,,,0.00,WXlink_for_OpenVMS,2013-01-24 08:25:00,
2013-01-24 03:30:00,7.0,-14.0,29.84,WNW,303,2.2,0.0,36,0.00,,,0.00,WXlink_for_OpenVMS,2013-01-24 08:30:00,
2013-01-24 03:35:00,7.0,-14.0,29.84,WNW,303,0.0,0.0,36,0.00,,,0.00,WXlink_for_OpenVMS,2013-01-24 08:35:00,
2013-01-24 03:40:00,7.0,-14.0,29.84,WNW,297,0.0,0.0,36,0.00,,,0.00,WXlink_for_OpenVMS,2013-01-24 08:40:00,
2013-01-24 03:46:00,6.8,-15.0,29.84,NW,319,0.0,0.0,36,0.00,,,0.00,WXlink_for_OpenVMS,2013-01-24 08:46:00,
2013-01-24 03:55:00,6.8,-15.0,29.84,WSW,243,0.0,0.0,36,0.00,,,0.00,WXlink_for_OpenVMS,2013-01-24 08:55:00,
2013-01-24 04:00:00,6.8,-15.0,29.81,WSW,251,0.0,0.0,36,0.00,,,0.00,WXlink_for_OpenVMS,2013-01-24 09:00:00,
2013-01-24 04:05:00,6.8,-15.0,29.81,WSW,251,0.0,0.0,36,0.00,,,0.00,WXlink_for_OpenVMS,2013-01-24 09:05:00,
2013-01-24 04:10:00,6.8,-15.0,29.81,WSW,251,0.0,0.0,36,0.00,,,0.00,WXlink_for_OpenVMS,2013-01-24 09:10:00,
2013-01-24 04:15:00,6.8,-15.0,29.81,WSW,251,0.0,0.0,36,0.00,,,0.00,WXlink_for_OpenVMS,2013-01-24 09:15:00,
2013-01-24 04:20:00,6.8,-15.0,29.81,WSW,251,0.0,0.0,36,0.00,,,0.00,WXlink_for_OpenVMS,2013-01-24 09:20:00,
2013-01-24 04:26:00,6.6,-15.0,29.81,WSW,251,0.0,0.0,36,0.00,,,0.00,WXlink_for_OpenVMS,2013-01-24 09:26:00,
2013-01-24 04:35:00,6.4,-15.0,29.81,WSW,251,0.0,0.0,36,0.00,,,0.00,WXlink_for_OpenVMS,2013-01-24 09:35:00,
2013-01-24 04:40:00,6.4,-15.0,29.81,WSW,251,0.0,0.0,36,0.00,,,0.00,WXlink_for_OpenVMS,2013-01-24 09:40:00,
2013-01-24 04:45:00,6.4,-15.0,29.81,WSW,251,0.0,0.0,36,0.00,,,0.00,WXlink_for_OpenVMS,2013-01-24 09:45:00,
2013-01-24 04:50:00,6.4,-15.0,29.81,WSW,251,0.0,0.0,36,0.00,,,0.00,WXlink_for_OpenVMS,2013-01-24 09:50:00,
2013-01-24 04:55:00,6.4,-15.0,29.81,WSW,251,0.0,0.0,36,0.00,,,0.00,WXlink_for_OpenVMS,2013-01-24 09:55:00,
2013-01-24 05:00:00,6.3,-15.0,29.81,WSW,251,0.0,0.0,36,0.00,,,0.00,WXlink_for_OpenVMS,2013-01-24 10:00:00,
2013-01-24 05:05:00,6.1,-15.0,29.81,WSW,251,0.0,0.0,36,0.00,,,0.00,WXlink_for_OpenVMS,2013-01-24 10:05:00,
2013-01-24 05:10:00,6.1,-15.0,29.81,WSW,251,0.0,0.0,36,0.00,,,0.00,WXlink_for_OpenVMS,2013-01-24 10:10:00,
2013-01-24 05:15:00,6.1,-15.0,29.84,WSW,251,0.0,0.0,36,0.00,,,0.00,WXlink_for_OpenVMS,2013-01-24 10:15:00,
2013-01-24 05:20:00,6.1,-15.0,29.84,WSW,251,0.0,0.0,36,0.00,,,0.00,WXlink_for_OpenVMS,2013-01-24 10:20:00,
2013-01-24 05:25:00,6.1,-15.0,29.84,WSW,251,0.0,0.0,36,0.00,,,0.00,WXlink_for_OpenVMS,2013-01-24 10:25:00,
2013-01-24 05:30:00,6.1,-15.0,29.84,WSW,251,0.0,0.0,36,0.00,,,0.00,WXlink_for_OpenVMS,2013-01-24 10:30:00,
2013-01-24 05:35:00,5.9,-15.0,29.84,WSW,251,0.0,0.0,36,0.00,,,0.00,WXlink_for_OpenVMS,2013-01-24 10:35:00,
2013-01-24 05:40:00,5.9,-15.0,29.84,WSW,251,0.0,0.0,36,0.00,,,0.00,WXlink_for_OpenVMS,2013-01-24 10:40:00,
2013-01-24 05:46:00,5.7,-16.0,29.84,WSW,251,0.0,0.0,36,0.00,,,0.00,WXlink_for_OpenVMS,2013-01-24 10:46:00,
2013-01-24 05:55:00,5.7,-16.0,29.84,WSW,251,0.0,0.0,36,0.00,,,0.00,WXlink_for_OpenVMS,2013-01-24 10:55:00,
2013-01-24 06:00:00,5.7,-16.0,29.84,WSW,251,0.0,0.0,36,0.00,,,0.00,WXlink_for_OpenVMS,2013-01-24 11:00:00,
2013-01-24 06:05:00,5.7,-16.0,29.84,WSW,251,0.0,0.0,36,0.00,,,0.00,WXlink_for_OpenVMS,2013-01-24 11:05:00,
2013-01-24 06:10:00,5.9,-15.0,29.84,WSW,251,0.0,0.0,36,0.00,,,0.00,WXlink_for_OpenVMS,2013-01-24 11:10:00,
2013-01-24 06:15:00,5.7,-16.0,29.84,WSW,251,0.0,0.0,36,0.00,,,0.00,WXlink_for_OpenVMS,2013-01-24 11:15:00,
2013-01-24 06:20:00,5.5,-16.0,29.84,WSW,251,0.0,0.0,36,0.00,,,0.00,WXlink_for_OpenVMS,2013-01-24 11:20:00,
2013-01-24 06:25:00,5.5,-16.0,29.84,WSW,251,0.0,0.0,36,0.00,,,0.00,WXlink_for_OpenVMS,2013-01-24 11:25:00,
2013-01-24 06:30:00,5.2,-16.0,29.84,WSW,251,0.0,0.0,36,0.00,,,0.00,WXlink_for_OpenVMS,2013-01-24 11:30:00,
2013-01-24 06:35:00,5.0,-16.0,29.84,WSW,251,0.0,0.0,36,0.00,,,0.00,WXlink_for_OpenVMS,2013-01-24 11:35:00,
2013-01-24 06:40:00,5.0,-16.0,29.84,WSW,251,0.0,0.0,36,0.00,,,0.00,WXlink_for_OpenVMS,2013-01-24 11:40:00,
2013-01-24 06:45:00,5.2,-16.0,29.84,WSW,251,0.0,0.0,36,0.00,,,0.00,WXlink_for_OpenVMS,2013-01-24 11:45:00,
2013-01-24 06:50:00,5.4,-16.0,29.84,WSW,251,0.0,0.0,36,0.00,,,0.00,WXlink_for_OpenVMS,2013-01-24 11:50:00,
2013-01-24 06:55:00,5.4,-16.0,29.84,WSW,251,0.0,0.0,36,0.00,,,0.00,WXlink_for_OpenVMS,2013-01-24 11:55:00,
2013-01-24 07:00:00,5.4,-16.0,29.84,WSW,251,0.0,0.0,36,0.00,,,0.00,WXlink_for_OpenVMS,2013-01-24 12:00:00,
2013-01-24 07:06:00,5.4,-16.0,29.84,WSW,251,0.0,0.0,36,0.00,,,0.00,WXlink_for_OpenVMS,2013-01-24 12:06:00,
2013-01-24 07:15:00,5.4,-16.0,29.84,WSW,251,0.0,0.0,36,0.00,,,0.00,WXlink_for_OpenVMS,2013-01-24 12:15:00,
2013-01-24 07:20:00,5.4,-16.0,29.84,WSW,251,0.0,0.0,36,0.00,,,0.00,WXlink_for_OpenVMS,2013-01-24 12:20:00,
2013-01-24 07:25:00,5.4,-16.0,29.84,WSW,251,0.0,0.0,36,0.00,,,0.00,WXlink_for_OpenVMS,2013-01-24 12:25:00,
2013-01-24 07:30:00,5.4,-16.0,29.84,WSW,251,0.0,0.0,36,0.00,,,0.00,WXlink_for_OpenVMS,2013-01-24 12:30:00,
2013-01-24 07:35:00,5.4,-16.0,29.84,WSW,251,0.0,0.0,36,0.00,,,0.00,WXlink_for_OpenVMS,2013-01-24 12:35:00,
2013-01-24 07:41:00,5.5,-16.0,29.84,WSW,251,0.0,0.0,36,0.00,,,0.00,WXlink_for_OpenVMS,2013-01-24 12:41:00,
2013-01-24 07:50:00,5.5,-16.0,29.84,WSW,251,0.0,0.0,36,0.00,,,0.00,WXlink_for_OpenVMS,2013-01-24 12:50:00,
2013-01-24 07:55:00,5.9,-15.0,29.84,WSW,251,0.0,0.0,36,0.00,,,0.00,WXlink_for_OpenVMS,2013-01-24 12:55:00,
2013-01-24 08:00:00,5.9,-15.0,29.84,WSW,251,0.0,0.0,36,0.00,,,0.00,WXlink_for_OpenVMS,2013-01-24 13:00:00,
2013-01-24 08:05:00,6.1,-15.0,29.84,WSW,251,0.0,0.0,36,0.00,,,0.00,WXlink_for_OpenVMS,2013-01-24 13:05:00,
2013-01-24 08:10:00,6.3,-15.0,29.84,WSW,238,0.0,0.0,36,0.00,,,0.00,WXlink_for_OpenVMS,2013-01-24 13:10:00,
2013-01-24 08:15:00,6.4,-15.0,29.84,WSW,238,0.0,0.0,36,0.00,,,0.00,WXlink_for_OpenVMS,2013-01-24 13:15:00,
2013-01-24 08:20:00,6.8,-15.0,29.84,WNW,294,0.0,0.0,36,0.00,,,0.00,WXlink_for_OpenVMS,2013-01-24 13:20:00,
2013-01-24 08:25:00,6.8,-15.0,29.84,WSW,243,0.0,0.0,36,0.00,,,0.00,WXlink_for_OpenVMS,2013-01-24 13:25:00,
2013-01-24 08:30:00,6.8,-15.0,29.84,WSW,242,0.0,0.0,36,0.00,,,0.00,WXlink_for_OpenVMS,2013-01-24 13:30:00,
2013-01-24 08:35:00,7.0,-14.0,29.84,WSW,248,3.1,3.1,36,0.00,,,0.00,WXlink_for_OpenVMS,2013-01-24 13:35:00,
2013-01-24 08:40:00,7.2,-14.0,29.84,West,269,0.0,0.0,36,0.00,,,0.00,WXlink_for_OpenVMS,2013-01-24 13:40:00,
2013-01-24 08:45:00,7.3,-14.0,29.84,WSW,249,0.0,0.0,36,0.00,,,0.00,WXlink_for_OpenVMS,2013-01-24 13:45:00,
2013-01-24 08:50:00,7.5,-14.0,29.84,WSW,237,0.0,2.7,36,0.00,,,0.00,WXlink_for_OpenVMS,2013-01-24 13:50:00,
2013-01-24 08:56:00,7.7,-14.0,29.84,WSW,237,0.0,0.0,36,0.00,,,0.00,WXlink_for_OpenVMS,2013-01-24 13:56:00,
2013-01-24 09:05:00,8.1,-13.0,29.84,WNW,300,3.6,3.6,36,0.00,,,0.00,WXlink_for_OpenVMS,2013-01-24 14:05:00,
2013-01-24 09:10:00,8.2,-13.0,29.84,WNW,301,3.1,5.8,36,0.00,,,0.00,WXlink_for_OpenVMS,2013-01-24 14:10:00,
2013-01-24 09:15:00,8.2,-13.0,29.84,WNW,286,3.6,3.6,36,0.00,,,0.00,WXlink_for_OpenVMS,2013-01-24 14:15:00,
2013-01-24 09:20:00,8.4,-13.0,29.84,NNW,346,3.1,3.1,36,0.00,,,0.00,WXlink_for_OpenVMS,2013-01-24 14:20:00,
2013-01-24 09:25:00,8.4,-13.0,29.84,NNW,331,4.0,4.0,36,0.00,,,0.00,WXlink_for_OpenVMS,2013-01-24 14:25:00,
2013-01-24 09:30:00,8.4,-13.0,29.84,WNW,290,0.0,0.0,36,0.00,,,0.00,WXlink_for_OpenVMS,2013-01-24 14:30:00,
2013-01-24 09:35:00,8.4,-13.0,29.84,West,262,0.0,0.0,36,0.00,,,0.00,WXlink_for_OpenVMS,2013-01-24 14:35:00,
2013-01-24 09:40:00,9.1,-12.0,29.84,WSW,238,4.0,4.5,36,0.00,,,0.00,WXlink_for_OpenVMS,2013-01-24 14:40:00,
2013-01-24 09:45:00,9.3,-12.0,29.84,WSW,250,3.1,4.0,36,0.00,,,0.00,WXlink_for_OpenVMS,2013-01-24 14:45:00,
2013-01-24 09:51:00,9.9,-12.0,29.84,West,267,3.6,4.9,36,0.00,,,0.00,WXlink_for_OpenVMS,2013-01-24 14:51:00,
2013-01-24 10:00:00,10.4,-11.0,29.84,SW,223,4.5,5.4,36,0.00,,,0.00,WXlink_for_OpenVMS,2013-01-24 15:00:00,
2013-01-24 10:06:00,10.8,-11.0,29.84,WSW,256,3.1,3.6,36,0.00,,,0.00,WXlink_for_OpenVMS,2013-01-24 15:06:00,
2013-01-24 10:10:00,11.1,-11.0,29.84,West,280,4.0,4.9,36,0.00,,,0.00,WXlink_for_OpenVMS,2013-01-24 15:10:00,
2013-01-24 10:16:00,11.3,-11.0,29.84,NW,307,3.6,5.8,36,0.00,,,0.00,WXlink_for_OpenVMS,2013-01-24 15:16:00,
2013-01-24 10:26:00,11.8,-10.0,29.84,NNW,327,5.8,6.3,36,0.00,,,0.00,WXlink_for_OpenVMS,2013-01-24 15:26:00,
2013-01-24 10:35:00,12.0,-10.0,29.84,NW,314,3.1,4.9,36,0.00,,,0.00,WXlink_for_OpenVMS,2013-01-24 15:35:00,
2013-01-24 10:40:00,12.4,-10.0,29.84,NW,306,4.5,7.2,36,0.00,,,0.00,WXlink_for_OpenVMS,2013-01-24 15:40:00,
2013-01-24 10:46:00,12.7,-9.0,29.84,WNW,302,3.6,3.6,36,0.00,,,0.00,WXlink_for_OpenVMS,2013-01-24 15:46:00,
2013-01-24 10:55:00,13.3,-9.0,29.84,WNW,282,5.8,5.8,36,0.00,,,0.00,WXlink_for_OpenVMS,2013-01-24 15:55:00,
2013-01-24 11:00:00,13.3,-5.0,29.84,West,279,3.6,5.4,43,0.00,,,0.00,WXlink_for_OpenVMS,2013-01-24 16:00:00,
2013-01-24 11:05:00,13.5,-5.0,29.84,WNW,295,6.3,6.3,42,0.00,,,0.00,WXlink_for_OpenVMS,2013-01-24 16:05:00,
2013-01-24 11:10:00,13.6,-5.0,29.84,West,280,4.5,4.5,42,0.00,,,0.00,WXlink_for_OpenVMS,2013-01-24 16:10:00,
2013-01-24 11:15:00,14.2,-5.0,29.84,WNW,286,4.9,5.8,41,0.00,,,0.00,WXlink_for_OpenVMS,2013-01-24 16:15:00,
2013-01-24 11:20:00,14.4,-6.0,29.84,WNW,292,2.7,5.4,40,0.00,,,0.00,WXlink_for_OpenVMS,2013-01-24 16:20:00,
2013-01-24 11:25:00,14.9,-5.0,29.84,WNW,295,3.6,8.1,40,0.00,,,0.00,WXlink_for_OpenVMS,2013-01-24 16:25:00,
2013-01-24 11:30:00,15.1,-5.0,29.81,NW,304,6.3,8.1,39,0.00,,,0.00,WXlink_for_OpenVMS,2013-01-24 16:30:00,
2013-01-24 11:35:00,15.3,-6.0,29.81,WNW,299,4.5,4.5,38,0.00,,,0.00,WXlink_for_OpenVMS,2013-01-24 16:35:00,
2013-01-24 11:41:00,15.6,-6.0,29.81,West,275,5.8,5.8,38,0.00,,,0.00,WXlink_for_OpenVMS,2013-01-24 16:41:00,
2013-01-24 11:50:00,16.5,-5.0,29.81,WSW,244,4.0,4.0,37,0.00,,,0.00,WXlink_for_OpenVMS,2013-01-24 16:50:00,
2013-01-24 11:55:00,16.9,-5.0,29.81,WNW,290,4.9,5.8,37,0.00,,,0.00,WXlink_for_OpenVMS,2013-01-24 16:55:00,
2013-01-24 12:00:00,17.1,-5.0,29.81,NNW,331,3.6,5.4,36,0.00,,,0.00,WXlink_for_OpenVMS,2013-01-24 17:00:00,
2013-01-24 12:05:00,17.4,-5.0,29.81,West,277,5.8,7.6,36,0.00,,,0.00,WXlink_for_OpenVMS,2013-01-24 17:05:00,
2013-01-24 12:10:00,17.6,-5.0,29.81,NW,321,5.8,5.8,35,0.00,,,0.00,WXlink_for_OpenVMS,2013-01-24 17:10:00,
2013-01-24 12:15:00,17.6,-5.0,29.81,WNW,283,4.9,4.9,35,0.00,,,0.00,WXlink_for_OpenVMS,2013-01-24 17:15:00,
2013-01-24 12:20:00,18.1,-5.0,29.81,NNW,327,5.4,6.3,35,0.00,,,0.00,WXlink_for_OpenVMS,2013-01-24 17:20:00,
2013-01-24 12:25:00,18.3,-5.0,29.81,West,280,4.9,4.9,35,0.00,,,0.00,WXlink_for_OpenVMS,2013-01-24 17:25:00,
2013-01-24 12:30:00,18.5,-5.0,29.81,West,271,6.3,6.3,35,0.00,,,0.00,WXlink_for_OpenVMS,2013-01-24 17:30:00,
2013-01-24 12:35:00,18.5,-5.0,29.81,West,260,5.4,6.3,34,0.00,,,0.00,WXlink_for_OpenVMS,2013-01-24 17:35:00,
2013-01-24 12:40:00,18.7,-5.0,29.81,West,275,7.2,7.2,34,0.00,,,0.00,WXlink_for_OpenVMS,2013-01-24 17:40:00,
2013-01-24 12:45:00,18.7,-5.0,29.81,WNW,295,4.5,8.1,34,0.00,,,0.00,WXlink_for_OpenVMS,2013-01-24 17:45:00,
2013-01-24 12:51:00,18.9,-5.0,29.81,WNW,283,4.0,4.0,34,0.00,,,0.00,WXlink_for_OpenVMS,2013-01-24 17:51:00,
2013-01-24 13:00:00,19.6,-4.0,29.78,SW,223,7.2,7.2,34,0.00,,,0.00,WXlink_for_OpenVMS,2013-01-24 18:00:00,
2013-01-24 13:05:00,19.9,-4.0,29.78,WNW,291,5.4,10.5,34,0.00,,,0.00,WXlink_for_OpenVMS,2013-01-24 18:05:00,
2013-01-24 13:10:00,20.1,-4.0,29.78,WNW,295,5.4,7.6,34,0.00,,,0.00,WXlink_for_OpenVMS,2013-01-24 18:10:00,
2013-01-24 13:15:00,20.3,-4.0,29.78,NW,304,5.8,5.8,34,0.00,,,0.00,WXlink_for_OpenVMS,2013-01-24 18:15:00,
2013-01-24 13:20:00,20.5,-3.0,29.78,West,272,4.9,5.4,34,0.00,,,0.00,WXlink_for_OpenVMS,2013-01-24 18:20:00,
2013-01-24 13:25:00,20.8,-3.0,29.78,WNW,290,3.6,7.2,34,0.00,,,0.00,WXlink_for_OpenVMS,2013-01-24 18:25:00,
2013-01-24 13:30:00,21.0,-4.0,29.78,NW,313,8.7,8.7,33,0.00,,,0.00,WXlink_for_OpenVMS,2013-01-24 18:30:00,
2013-01-24 13:36:00,21.0,-4.0,29.78,NW,325,6.7,8.1,33,0.00,,,0.00,WXlink_for_OpenVMS,2013-01-24 18:36:00,
2013-01-24 13:45:00,21.2,-3.0,29.78,West,271,5.8,6.3,33,0.00,,,0.00,WXlink_for_OpenVMS,2013-01-24 18:45:00,
2013-01-24 13:50:00,21.2,-3.0,29.78,SW,225,6.7,6.7,33,0.00,,,0.00,WXlink_for_OpenVMS,2013-01-24 18:50:00,
2013-01-24 13:55:00,21.6,-3.0,29.78,West,265,3.6,3.6,33,0.00,,,0.00,WXlink_for_OpenVMS,2013-01-24 18:55:00,
2013-01-24 14:00:00,21.9,-3.0,29.78,NNW,339,4.5,6.3,33,0.00,,,0.00,WXlink_for_OpenVMS,2013-01-24 19:00:00,
2013-01-24 14:05:00,22.3,-2.0,29.78,West,272,6.3,6.3,33,0.00,,,0.00,WXlink_for_OpenVMS,2013-01-24 19:05:00,
2013-01-24 14:10:00,22.3,-2.0,29.78,WNW,282,4.9,6.3,33,0.00,,,0.00,WXlink_for_OpenVMS,2013-01-24 19:10:00,
2013-01-24 14:15:00,22.3,-3.0,29.78,WSW,258,5.4,5.4,32,0.00,,,0.00,WXlink_for_OpenVMS,2013-01-24 19:15:00,
2013-01-24 14:20:00,22.1,-3.0,29.78,WNW,285,6.3,7.2,32,0.00,,,0.00,WXlink_for_OpenVMS,2013-01-24 19:20:00,
2013-01-24 14:26:00,21.7,-7.0,29.78,NW,322,6.7,6.7,27,0.00,,,0.00,WXlink_for_OpenVMS,2013-01-24 19:26:00,
2013-01-24 14:35:00,21.9,-5.0,29.78,NW,305,5.8,8.3,30,0.00,,,0.00,WXlink_for_OpenVMS,2013-01-24 19:35:00,
2013-01-24 14:40:00,21.7,-9.0,29.78,WSW,246,4.9,5.4,25,0.00,,,0.00,WXlink_for_OpenVMS,2013-01-24 19:40:00,
2013-01-24 14:45:00,21.9,-5.0,29.78,West,279,4.0,4.5,30,0.00,,,0.00,WXlink_for_OpenVMS,2013-01-24 19:45:00,
2013-01-24 14:50:00,22.3,-7.0,29.78,NNW,342,3.6,8.1,27,0.00,,,0.00,WXlink_for_OpenVMS,2013-01-24 19:50:00,
2013-01-24 14:55:00,21.9,-9.0,29.78,WNW,292,7.2,7.2,25,0.00,,,0.00,WXlink_for_OpenVMS,2013-01-24 19:55:00,
2013-01-24 15:00:00,21.7,-11.0,29.78,WNW,295,5.4,5.4,22,0.00,,,0.00,WXlink_for_OpenVMS,2013-01-24 20:00:00,
2013-01-24 15:05:00,21.7,-9.0,29.78,NNW,338,4.9,5.8,25,0.00,,,0.00,WXlink_for_OpenVMS,2013-01-24 20:05:00,
2013-01-24 15:10:00,21.7,-9.0,29.78,WSW,257,4.0,5.4,25,0.00,,,0.00,WXlink_for_OpenVMS,2013-01-24 20:10:00,
2013-01-24 15:15:00,21.7,-9.0,29.78,SW,234,4.9,4.9,25,0.00,,,0.00,WXlink_for_OpenVMS,2013-01-24 20:15:00,
2013-01-24 15:20:00,21.7,-9.0,29.78,WNW,302,6.3,6.3,25,0.00,,,0.00,WXlink_for_OpenVMS,2013-01-24 20:20:00,
2013-01-24 15:25:00,21.6,-9.0,29.78,SW,233,5.8,8.1,25,0.00,,,0.00,WXlink_for_OpenVMS,2013-01-24 20:25:00,
2013-01-24 15:30:00,21.4,-9.0,29.78,NW,312,4.9,4.9,25,0.00,,,0.00,WXlink_for_OpenVMS,2013-01-24 20:30:00,
2013-01-24 15:36:00,21.2,-9.0,29.78,SSW,210,5.8,5.8,25,0.00,,,0.00,WXlink_for_OpenVMS,2013-01-24 20:36:00,
2013-01-24 15:45:00,20.8,-12.0,29.81,NW,314,5.8,5.8,22,0.00,,,0.00,WXlink_for_OpenVMS,2013-01-24 20:45:00,
2013-01-24 15:50:00,20.7,-12.0,29.81,WNW,294,3.6,4.0,22,0.00,,,0.00,WXlink_for_OpenVMS,2013-01-24 20:50:00,
2013-01-24 15:55:00,20.5,-14.0,29.81,NW,324,7.2,9.6,20,0.00,,,0.00,WXlink_for_OpenVMS,2013-01-24 20:55:00,
2013-01-24 16:00:00,20.1,-15.0,29.81,West,272,6.3,6.3,20,0.00,,,0.00,WXlink_for_OpenVMS,2013-01-24 21:00:00,
2013-01-24 16:05:00,19.9,-15.0,29.81,WNW,285,6.3,8.1,20,0.00,,,0.00,WXlink_for_OpenVMS,2013-01-24 21:05:00,
2013-01-24 16:10:00,19.8,-15.0,29.81,West,259,5.8,5.8,20,0.00,,,0.00,WXlink_for_OpenVMS,2013-01-24 21:10:00,
2013-01-24 16:15:00,19.6,-15.0,29.81,WNW,294,4.9,6.3,20,0.00,,,0.00,WXlink_for_OpenVMS,2013-01-24 21:15:00,
2013-01-24 16:20:00,19.6,-17.0,29.81,WNW,284,8.1,8.1,18,0.00,,,0.00,WXlink_for_OpenVMS,2013-01-24 21:20:00,
2013-01-24 16:25:00,19.4,-17.0,29.81,WNW,287,4.0,4.0,18,0.00,,,0.00,WXlink_for_OpenVMS,2013-01-24 21:25:00,
2013-01-24 16:30:00,19.4,-17.0,29.81,WNW,295,3.1,4.9,18,0.00,,,0.00,WXlink_for_OpenVMS,2013-01-24 21:30:00,
2013-01-24 16:36:00,19.2,-17.0,29.81,NW,308,4.0,5.8,18,0.00,,,0.00,WXlink_for_OpenVMS,2013-01-24 21:36:00,
2013-01-24 16:45:00,19.0,-18.0,29.81,West,262,4.0,4.0,18,0.00,,,0.00,WXlink_for_OpenVMS,2013-01-24 21:45:00,
2013-01-24 16:50:00,19.0,-15.0,29.81,WNW,294,3.6,4.9,21,0.00,,,0.00,WXlink_for_OpenVMS,2013-01-24 21:50:00,
2013-01-24 16:55:00,18.7,-15.0,29.81,WSW,247,3.6,3.6,21,0.00,,,0.00,WXlink_for_OpenVMS,2013-01-24 21:55:00,
2013-01-24 17:00:00,18.7,-15.0,29.81,WSW,241,4.0,4.0,21,0.00,,,0.00,WXlink_for_OpenVMS,2013-01-24 22:00:00,
2013-01-24 17:05:00,18.7,-15.0,29.81,WNW,286,4.5,4.5,21,0.00,,,0.00,WXlink_for_OpenVMS,2013-01-24 22:05:00,
2013-01-24 17:10:00,18.7,-15.0,29.81,West,275,4.5,4.5,21,0.00,,,0.00,WXlink_for_OpenVMS,2013-01-24 22:10:00,
2013-01-24 17:15:00,18.7,-15.0,29.84,West,265,3.6,4.0,21,0.00,,,0.00,WXlink_for_OpenVMS,2013-01-24 22:15:00,
2013-01-24 17:20:00,18.5,-15.0,29.84,WSW,249,4.0,4.0,21,0.00,,,0.00,WXlink_for_OpenVMS,2013-01-24 22:20:00,
2013-01-24 17:25:00,18.3,-15.0,29.84,WNW,295,4.0,4.0,21,0.00,,,0.00,WXlink_for_OpenVMS,2013-01-24 22:25:00,
2013-01-24 17:30:00,18.3,-15.0,29.84,WNW,298,3.6,4.9,21,0.00,,,0.00,WXlink_for_OpenVMS,2013-01-24 22:30:00,
2013-01-24 17:35:00,18.3,-15.0,29.84,West,278,0.0,5.8,21,0.00,,,0.00,WXlink_for_OpenVMS,2013-01-24 22:35:00,
2013-01-24 17:41:00,18.1,-15.0,29.84,WNW,286,3.6,4.0,21,0.00,,,0.00,WXlink_for_OpenVMS,2013-01-24 22:41:00,
2013-01-24 17:50:00,17.8,-16.0,29.84,WSW,246,3.6,4.0,21,0.00,,,0.00,WXlink_for_OpenVMS,2013-01-24 22:50:00,
2013-01-24 17:55:00,18.0,-13.0,29.84,West,266,3.6,4.0,24,0.00,,,0.00,WXlink_for_OpenVMS,2013-01-24 22:55:00,
2013-01-24 18:00:00,17.8,-13.0,29.84,West,261,4.0,4.0,24,0.00,,,0.00,WXlink_for_OpenVMS,2013-01-24 23:00:00,
2013-01-24 18:05:00,17.8,-13.0,29.84,SSE,163,3.6,4.9,24,0.00,,,0.00,WXlink_for_OpenVMS,2013-01-24 23:05:00,
2013-01-24 18:10:00,18.0,-13.0,29.84,WNW,299,5.4,5.4,24,0.00,,,0.00,WXlink_for_OpenVMS,2013-01-24 23:10:00,
2013-01-24 18:15:00,17.8,-13.0,29.84,West,279,4.9,4.9,24,0.00,,,0.00,WXlink_for_OpenVMS,2013-01-24 23:15:00,
2013-01-24 18:20:00,17.8,-16.0,29.84,NW,315,5.4,5.8,21,0.00,,,0.00,WXlink_for_OpenVMS,2013-01-24 23:20:00,
2013-01-24 18:25:00,18.0,-15.0,29.84,WSW,237,4.0,4.0,21,0.00,,,0.00,WXlink_for_OpenVMS,2013-01-24 23:25:00,
2013-01-24 18:30:00,18.1,-15.0,29.84,SW,232,3.1,4.0,21,0.00,,,0.00,WXlink_for_OpenVMS,2013-01-24 23:30:00,
2013-01-24 18:36:00,18.1,-13.0,29.84,WSW,258,3.6,4.5,24,0.00,,,0.00,WXlink_for_OpenVMS,2013-01-24 23:36:00,
2013-01-24 18:45:00,17.8,-9.0,29.84,SW,236,4.0,4.0,29,0.00,,,0.00,WXlink_for_OpenVMS,2013-01-24 23:45:00,
2013-01-24 18:50:00,17.8,-8.0,29.84,WSW,238,3.6,3.6,31,0.00,,,0.00,WXlink_for_OpenVMS,2013-01-24 23:50:00,
2013-01-24 18:55:00,17.6,-6.0,29.84,WSW,254,3.1,0.0,34,0.00,,,0.00,WXlink_for_OpenVMS,2013-01-24 23:55:00,
2013-01-24 19:00:00,17.6,-6.0,29.86,West,275,2.7,2.7,34,0.00,,,0.00,WXlink_for_OpenVMS,2013-01-25 00:00:00,
2013-01-24 19:05:00,17.4,-6.0,29.86,West,261,3.6,3.6,34,0.00,,,0.00,WXlink_for_OpenVMS,2013-01-25 00:05:00,
2013-01-24 19:10:00,17.1,-7.0,29.86,SW,231,3.1,3.6,34,0.00,,,0.00,WXlink_for_OpenVMS,2013-01-25 00:10:00,
2013-01-24 19:15:00,17.1,-7.0,29.86,West,273,4.0,4.0,34,0.00,,,0.00,WXlink_for_OpenVMS,2013-01-25 00:15:00,
2013-01-24 19:21:00,16.9,-7.0,29.86,SW,219,4.5,4.5,34,0.00,,,0.00,WXlink_for_OpenVMS,2013-01-25 00:21:00,
2013-01-24 19:30:00,16.5,-7.0,29.86,West,265,4.9,5.4,34,0.00,,,0.00,WXlink_for_OpenVMS,2013-01-25 00:30:00,
2013-01-24 19:35:00,16.5,-7.0,29.86,WSW,255,0.0,3.6,34,0.00,,,0.00,WXlink_for_OpenVMS,2013-01-25 00:35:00,
2013-01-24 19:41:00,16.3,-7.0,29.86,West,262,3.1,3.1,35,0.00,,,0.00,WXlink_for_OpenVMS,2013-01-25 00:41:00,
2013-01-24 19:50:00,16.2,-7.0,29.86,WNW,284,4.0,4.0,35,0.00,,,0.00,WXlink_for_OpenVMS,2013-01-25 00:50:00,
2013-01-24 19:55:00,16.0,-7.0,29.86,WSW,249,3.1,3.1,35,0.00,,,0.00,WXlink_for_OpenVMS,2013-01-25 00:55:00,
2013-01-24 20:00:00,16.0,-7.0,29.86,West,265,3.6,3.6,35,0.00,,,0.00,WXlink_for_OpenVMS,2013-01-25 01:00:00,
2013-01-24 20:05:00,16.0,-7.0,29.86,WNW,301,3.6,3.6,35,0.00,,,0.00,WXlink_for_OpenVMS,2013-01-25 01:05:00,
2013-01-24 20:10:00,15.8,-7.0,29.86,West,265,3.1,4.9,35,0.00,,,0.00,WXlink_for_OpenVMS,2013-01-25 01:10:00,
2013-01-24 20:15:00,15.8,-7.0,29.86,SW,236,4.5,5.4,35,0.00,,,0.00,WXlink_for_OpenVMS,2013-01-25 01:15:00,
2013-01-24 20:20:00,15.4,-7.0,29.86,West,270,3.6,4.0,35,0.00,,,0.00,WXlink_for_OpenVMS,2013-01-25 01:20:00,
2013-01-24 20:25:00,15.4,-7.0,29.86,WSW,249,3.6,3.6,35,0.00,,,0.00,WXlink_for_OpenVMS,2013-01-25 01:25:00,
2013-01-24 20:31:00,15.4,-7.0,29.86,West,259,3.1,4.0,35,0.00,,,0.00,WXlink_for_OpenVMS,2013-01-25 01:31:00,
2013-01-24 20:40:00,15.4,-7.0,29.86,WSW,242,3.6,3.6,35,0.00,,,0.00,WXlink_for_OpenVMS,2013-01-25 01:40:00,
2013-01-24 20:45:00,15.4,-7.0,29.90,WSW,246,0.0,0.0,35,0.00,,,0.00,WXlink_for_OpenVMS,2013-01-25 01:45:00,
2013-01-24 20:50:00,15.4,-7.0,29.90,SW,222,3.1,3.1,35,0.00,,,0.00,WXlink_for_OpenVMS,2013-01-25 01:50:00,
2013-01-24 20:55:00,15.4,-7.0,29.90,WSW,247,2.2,2.2,35,0.00,,,0.00,WXlink_for_OpenVMS,2013-01-25 01:55:00,
2013-01-24 21:00:00,15.3,-8.0,29.90,SW,230,0.0,2.2,35,0.00,,,0.00,WXlink_for_OpenVMS,2013-01-25 02:00:00,
2013-01-24 21:05:00,15.3,-8.0,29.90,WSW,252,0.0,2.2,35,0.00,,,0.00,WXlink_for_OpenVMS,2013-01-25 02:05:00,
2013-01-24 21:10:00,15.1,-8.0,29.90,WSW,252,0.0,0.0,35,0.00,,,0.00,WXlink_for_OpenVMS,2013-01-25 02:10:00,
2013-01-24 21:15:00,15.1,-8.0,29.90,West,274,0.0,0.0,35,0.00,,,0.00,WXlink_for_OpenVMS,2013-01-25 02:15:00,
2013-01-24 21:20:00,15.1,-8.0,29.90,West,274,0.0,0.0,35,0.00,,,0.00,WXlink_for_OpenVMS,2013-01-25 02:20:00,
2013-01-24 21:26:00,14.9,-8.0,29.90,West,274,0.0,0.0,35,0.00,,,0.00,WXlink_for_OpenVMS,2013-01-25 02:26:00,
2013-01-24 21:35:00,14.9,-8.0,29.90,NW,314,4.0,4.0,35,0.00,,,0.00,WXlink_for_OpenVMS,2013-01-25 02:35:00,
2013-01-24 21:40:00,14.9,-8.0,29.90,WNW,301,3.1,4.0,35,0.00,,,0.00,WXlink_for_OpenVMS,2013-01-25 02:40:00,
2013-01-24 21:45:00,15.1,-8.0,29.90,WSW,253,0.0,0.0,35,0.00,,,0.00,WXlink_for_OpenVMS,2013-01-25 02:45:00,
2013-01-24 21:50:00,15.1,-8.0,29.90,West,276,2.2,3.1,35,0.00,,,0.00,WXlink_for_OpenVMS,2013-01-25 02:50:00,
2013-01-24 21:55:00,15.1,-8.0,29.90,NW,315,4.5,4.5,35,0.00,,,0.00,WXlink_for_OpenVMS,2013-01-25 02:55:00,
2013-01-24 22:00:00,15.1,-8.0,29.90,WNW,287,3.1,3.6,35,0.00,,,0.00,WXlink_for_OpenVMS,2013-01-25 03:00:00,
2013-01-24 22:06:00,15.1,-8.0,29.90,WNW,300,4.5,4.5,35,0.00,,,0.00,WXlink_for_OpenVMS,2013-01-25 03:06:00,
2013-01-24 22:15:00,14.9,-8.0,29.90,WNW,285,3.1,4.0,35,0.00,,,0.00,WXlink_for_OpenVMS,2013-01-25 03:15:00,
2013-01-24 22:20:00,14.7,-8.0,29.90,West,271,4.0,4.0,35,0.00,,,0.00,WXlink_for_OpenVMS,2013-01-25 03:20:00,
2013-01-24 22:25:00,14.5,-8.0,29.90,NW,313,5.4,5.4,35,0.00,,,0.00,WXlink_for_OpenVMS,2013-01-25 03:25:00,
2013-01-24 22:30:00,14.4,-8.0,29.93,WNW,297,4.5,4.5,35,0.00,,,0.00,WXlink_for_OpenVMS,2013-01-25 03:30:00,
2013-01-24 22:35:00,14.4,-8.0,29.93,WNW,290,3.6,3.6,35,0.00,,,0.00,WXlink_for_OpenVMS,2013-01-25 03:35:00,
2013-01-24 22:40:00,14.2,-8.0,29.93,West,266,2.7,3.6,35,0.00,,,0.00,WXlink_for_OpenVMS,2013-01-25 03:40:00,
2013-01-24 22:45:00,14.0,-9.0,29.90,NNW,334,5.4,7.6,35,0.00,,,0.00,WXlink_for_OpenVMS,2013-01-25 03:45:00,
2013-01-24 22:50:00,13.8,-9.0,29.90,West,278,4.9,4.9,35,0.00,,,0.00,WXlink_for_OpenVMS,2013-01-25 03:50:00,
2013-01-24 22:56:00,13.6,-9.0,29.90,WNW,288,3.6,3.6,35,0.00,,,0.00,WXlink_for_OpenVMS,2013-01-25 03:56:00,
2013-01-24 23:05:00,13.6,-9.0,29.93,West,278,0.0,0.0,35,0.00,,,0.00,WXlink_for_OpenVMS,2013-01-25 04:05:00,
2013-01-24 23:10:00,13.6,-9.0,29.93,NW,306,2.7,3.6,35,0.00,,,0.00,WXlink_for_OpenVMS,2013-01-25 04:10:00,
2013-01-24 23:15:00,13.5,-9.0,29.93,WNW,297,4.0,5.4,35,0.00,,,0.00,WXlink_for_OpenVMS,2013-01-25 04:15:00,
2013-01-24 23:21:00,13.5,-9.0,29.93,WNW,287,6.7,8.3,35,0.00,,,0.00,WXlink_for_OpenVMS,2013-01-25 04:21:00,
2013-01-24 23:30:00,12.9,-10.0,29.93,NNW,336,4.0,6.3,35,0.00,,,0.00,WXlink_for_OpenVMS,2013-01-25 04:30:00,
2013-01-24 23:35:00,12.9,-10.0,29.93,NW,306,4.0,4.0,35,0.00,,,0.00,WXlink_for_OpenVMS,2013-01-25 04:35:00,
2013-01-24 23:41:00,12.9,-10.0,29.93,WNW,301,4.0,4.0,35,0.00,,,0.00,WXlink_for_OpenVMS,2013-01-25 04:41:00,
2013-01-24 23:50:00,12.7,-10.0,29.96,NNW,330,6.3,6.3,35,0.00,,,0.00,WXlink_for_OpenVMS,2013-01-25 04:50:00,
2013-01-24 23:55:00,12.6,-10.0,29.96,NNW,341,2.2,3.6,35,0.00,,,0.00,WXlink_for_OpenVMS,2013-01-25 04:55:00,